Time;durP1;ratioP1;P1;durP2;ratioP2;P2;SDS_P1;SDS_P2;PMS_P1;PMS_P2;Temp;Humidity;BMP_temperature;BMP_pressure;BME280_temperature;BME280_humidity;BME280_pressure;Samples;Min_cycle;Max_cycle;Signal;HPM_P1;HPM_P2
2022/03/31 00:00:49;;;;;;;2.30;1.60;;;16.10;72.00;;;;;;2005441;28;20303;-76
2022/03/31 00:01:47;;;;;;;2.50;1.17;;;16.10;72.00;;;;;;2005441;28;20188;-76
2022/03/31 00:02:46;;;;;;;1.90;1.30;;;16.10;72.00;;;;;;2005511;28;20200;-75
2022/03/31 00:03:47;;;;;;;2.85;1.30;;;16.10;72.00;;;;;;2007771;28;20252;-76
2022/03/31 00:04:45;;;;;;;2.08;1.30;;;16.10;71.90;;;;;;2008041;28;20205;-76
2022/03/31 00:05:44;;;;;;;2.10;1.37;;;16.10;72.00;;;;;;2007042;28;20261;-76
2022/03/31 00:06:43;;;;;;;2.20;1.60;;;16.10;72.00;;;;;;2006261;28;20196;-75
2022/03/31 00:07:59;;;;;;;2.43;1.40;;;16.10;72.00;;;;;;2004960;28;20173;-75
2022/03/31 00:08:57;;;;;;;3.35;1.40;;;16.10;72.00;;;;;;2005046;28;20384;-75
2022/03/31 00:09:56;;;;;;;1.57;1.47;;;16.10;71.90;;;;;;2005541;28;20181;-75
2022/03/31 00:10:55;;;;;;;2.60;1.27;;;16.00;71.80;;;;;;2005357;28;20619;-75
2022/03/31 00:11:54;;;;;;;1.95;1.58;;;16.10;72.20;;;;;;2005322;28;20370;-75
2022/03/31 00:12:54;;;;;;;1.97;1.47;;;16.10;72.20;;;;;;2005322;28;20621;-74
2022/03/31 00:13:53;;;;;;;1.75;1.40;;;16.10;72.00;;;;;;2005410;28;20671;-76
2022/03/31 00:14:51;;;;;;;1.53;1.27;;;16.00;72.00;;;;;;2005338;28;20659;-75
2022/03/31 00:15:53;;;;;;;1.80;1.40;;;16.00;71.80;;;;;;2005117;28;20193;-75
2022/03/31 00:16:52;;;;;;;3.67;1.67;;;16.10;72.10;;;;;;2005225;28;20162;-75
2022/03/31 00:17:51;;;;;;;1.63;1.10;;;16.00;71.90;;;;;;2005322;28;20257;-74
2022/03/31 00:18:50;;;;;;;1.27;1.13;;;16.00;72.00;;;;;;2005180;28;20950;-76
2022/03/31 00:19:49;;;;;;;1.50;1.13;;;16.00;72.10;;;;;;2005162;28;20197;-76
2022/03/31 00:20:48;;;;;;;1.63;1.00;;;16.00;71.90;;;;;;2005097;28;20200;-75
2022/03/31 00:21:48;;;;;;;2.23;1.40;;;16.00;71.90;;;;;;2005315;28;20169;-74
2022/03/31 00:22:47;;;;;;;2.00;1.40;;;16.00;71.90;;;;;;2005357;28;20600;-75
2022/03/31 00:23:47;;;;;;;2.50;1.20;;;16.00;71.90;;;;;;2005250;28;20184;-75
2022/03/31 00:24:45;;;;;;;2.17;1.30;;;16.00;71.90;;;;;;2005948;28;20276;-75
2022/03/31 00:25:44;;;;;;;1.40;1.13;;;16.00;71.80;;;;;;2004731;28;20193;-75
2022/03/31 00:26:43;;;;;;;1.57;1.27;;;16.00;71.80;;;;;;2004185;28;20728;-76
2022/03/31 00:27:41;;;;;;;4.97;1.47;;;16.00;72.00;;;;;;1996775;28;20615;-75
2022/03/31 00:28:40;;;;;;;2.20;1.20;;;16.00;71.90;;;;;;2004185;28;20408;-74
2022/03/31 00:29:38;;;;;;;1.73;1.43;;;16.00;71.90;;;;;;2005123;28;20466;-75
2022/03/31 00:30:38;;;;;;;2.20;1.60;;;16.00;71.90;;;;;;2005133;28;20176;-75
2022/03/31 00:31:38;;;;;;;1.30;1.02;;;16.00;72.60;;;;;;2005259;28;20248;-75
2022/03/31 00:32:37;;;;;;;1.50;1.30;;;16.00;71.90;;;;;;2005085;28;20683;-74
2022/03/31 00:33:36;;;;;;;3.55;1.40;;;16.00;72.00;;;;;;2005137;28;20538;-75
2022/03/31 00:34:35;;;;;;;2.97;1.50;;;16.00;71.80;;;;;;2005188;28;20177;-75
2022/03/31 00:35:34;;;;;;;1.48;1.38;;;16.00;72.00;;;;;;2005011;28;20546;-75
2022/03/31 00:36:33;;;;;;;2.40;1.38;;;16.00;72.10;;;;;;2005110;28;20215;-75
2022/03/31 00:37:31;;;;;;;2.70;1.20;;;16.00;72.10;;;;;;2005209;28;20169;-75
2022/03/31 00:38:30;;;;;;;2.00;1.23;;;16.00;71.80;;;;;;2005059;28;20173;-75
2022/03/31 00:39:29;;;;;;;4.83;1.63;;;16.00;72.10;;;;;;2005124;28;20173;-76
2022/03/31 00:40:30;;;;;;;1.75;1.30;;;16.00;72.10;;;;;;2005100;28;20173;-75
2022/03/31 00:41:28;;;;;;;2.47;1.50;;;16.00;72.10;;;;;;2005135;28;20251;-75
2022/03/31 00:42:27;;;;;;;3.00;1.10;;;15.90;72.00;;;;;;2004317;28;20235;-76
2022/03/31 00:43:25;;;;;;;2.13;1.40;;;15.90;71.80;;;;;;2004478;28;20173;-76
2022/03/31 00:44:26;;;;;;;1.20;1.10;;;16.00;72.10;;;;;;2005047;28;20264;-75
2022/03/31 00:45:32;;;;;;;1.45;1.35;;;16.00;72.00;;;;;;2004229;28;20232;-76
2022/03/31 00:46:32;;;;;;;1.50;1.20;;;16.00;72.00;;;;;;2004330;28;20590;-75
2022/03/31 00:47:34;;;;;;;3.03;1.77;;;16.00;72.00;;;;;;2005015;28;20228;-76
2022/03/31 00:48:33;;;;;;;3.05;2.08;;;16.00;72.00;;;;;;2004366;28;20192;-75
2022/03/31 00:49:35;;;;;;;1.50;1.10;;;16.00;72.00;;;;;;2004422;28;20205;-75
2022/03/31 00:50:34;;;;;;;2.25;1.40;;;16.00;72.10;;;;;;2004935;28;20173;-76
2022/03/31 00:51:32;;;;;;;1.50;1.40;;;16.00;72.00;;;;;;2004993;28;20507;-76
2022/03/31 00:52:31;;;;;;;2.40;1.30;;;15.90;71.80;;;;;;2005079;28;20180;-76
2022/03/31 00:53:30;;;;;;;1.73;1.10;;;16.00;72.00;;;;;;2005027;28;20321;-77
2022/03/31 00:54:29;;;;;;;1.57;1.20;;;16.00;72.10;;;;;;2004310;28;20179;-76
2022/03/31 00:55:27;;;;;;;1.38;1.10;;;16.00;71.80;;;;;;2004381;28;20173;-75
2022/03/31 00:56:27;;;;;;;1.45;1.00;;;16.00;72.00;;;;;;2004798;28;20188;-75
2022/03/31 00:57:25;;;;;;;2.63;1.50;;;16.00;72.10;;;;;;2005011;28;20172;-75
2022/03/31 00:58:24;;;;;;;3.40;1.67;;;15.90;72.00;;;;;;2005040;28;20169;-75
2022/03/31 00:59:25;;;;;;;1.53;1.17;;;15.90;72.10;;;;;;2004985;28;20169;-75
2022/03/31 01:00:24;;;;;;;6.13;1.40;;;16.00;72.20;;;;;;2004884;28;20434;-75
2022/03/31 01:01:24;;;;;;;1.90;1.35;;;16.00;72.10;;;;;;2004978;28;20189;-75
2022/03/31 01:02:22;;;;;;;1.70;1.40;;;15.90;72.10;;;;;;1996349;28;20248;-75
2022/03/31 01:03:21;;;;;;;1.53;1.13;;;15.90;72.20;;;;;;1996364;28;20515;-76
2022/03/31 01:04:20;;;;;;;1.60;1.20;;;15.90;72.20;;;;;;2004127;28;20169;-75
2022/03/31 01:05:18;;;;;;;1.87;1.33;;;15.90;72.30;;;;;;2004779;28;20188;-75
2022/03/31 01:06:18;;;;;;;2.23;1.30;;;16.00;72.50;;;;;;2004979;28;20223;-75
2022/03/31 01:07:17;;;;;;;1.55;1.20;;;15.90;72.30;;;;;;2004220;28;20176;-75
2022/03/31 01:08:15;;;;;;;2.00;1.40;;;15.90;72.30;;;;;;2004345;28;20709;-76
2022/03/31 01:09:14;;;;;;;1.80;1.10;;;15.90;72.30;;;;;;2004223;28;20184;-75
2022/03/31 01:10:14;;;;;;;3.07;1.27;;;15.90;72.30;;;;;;2004430;28;20177;-75
2022/03/31 01:11:12;;;;;;;2.72;1.50;;;15.90;72.40;;;;;;2003791;28;20545;-75
2022/03/31 01:12:13;;;;;;;2.20;1.37;;;15.90;72.40;;;;;;1998024;28;20216;-75
2022/03/31 01:13:12;;;;;;;1.65;1.30;;;15.90;72.30;;;;;;2003374;28;20169;-75
2022/03/31 01:14:11;;;;;;;1.48;1.35;;;15.90;72.20;;;;;;2004251;28;20173;-75
2022/03/31 01:15:18;;;;;;;1.30;1.13;;;15.80;72.20;;;;;;2004425;28;20259;-76
2022/03/31 01:16:17;;;;;;;1.90;1.40;;;15.90;72.30;;;;;;2003994;28;20267;-75
2022/03/31 01:17:15;;;;;;;1.90;1.07;;;15.90;72.20;;;;;;2004996;28;20173;-75
2022/03/31 01:18:14;;;;;;;1.60;1.43;;;15.90;72.00;;;;;;2004140;28;20177;-75
2022/03/31 01:19:12;;;;;;;1.90;1.40;;;15.90;72.20;;;;;;2004128;28;20560;-76
2022/03/31 01:20:19;;;;;;;1.97;1.60;;;15.90;72.20;;;;;;2004977;28;20576;-76
2022/03/31 01:21:18;;;;;;;1.90;1.25;;;15.90;72.10;;;;;;1996393;28;20189;-75
2022/03/31 01:22:17;;;;;;;1.83;1.40;;;15.80;72.30;;;;;;1996450;28;20180;-76
2022/03/31 01:23:16;;;;;;;2.00;1.10;;;15.90;72.40;;;;;;2004654;28;21031;-76
2022/03/31 01:24:15;;;;;;;2.50;1.40;;;15.80;72.40;;;;;;2004716;28;20177;-76
2022/03/31 01:25:14;;;;;;;1.20;1.10;;;15.80;72.30;;;;;;2004740;28;20173;-75
2022/03/31 01:26:13;;;;;;;1.42;1.10;;;15.90;72.20;;;;;;2004863;28;20229;-75
2022/03/31 01:27:14;;;;;;;1.58;1.23;;;15.90;72.20;;;;;;2004955;28;20169;-76
2022/03/31 01:28:12;;;;;;;1.60;1.20;;;15.90;72.30;;;;;;2004815;28;20201;-75
2022/03/31 01:29:12;;;;;;;4.53;1.13;;;15.80;72.20;;;;;;2004156;28;20173;-75
2022/03/31 01:30:17;;;;;;;3.38;1.65;;;15.80;72.30;;;;;;2004032;28;20194;-76
2022/03/31 01:31:18;;;;;;;2.13;1.45;;;15.80;72.30;;;;;;2004893;28;20196;-75
2022/03/31 01:32:17;;;;;;;1.88;1.42;;;15.80;72.30;;;;;;2004899;28;20173;-75
2022/03/31 01:33:17;;;;;;;4.63;1.37;;;15.80;72.20;;;;;;2004766;28;20654;-75
2022/03/31 01:34:16;;;;;;;2.45;1.50;;;15.90;72.30;;;;;;2004087;28;20177;-76
2022/03/31 01:35:16;;;;;;;1.40;1.20;;;15.80;72.30;;;;;;2004144;28;20708;-75
2022/03/31 01:36:14;;;;;;;1.95;1.10;;;15.80;72.30;;;;;;2004786;28;20185;-75
2022/03/31 01:37:13;;;;;;;4.33;1.60;;;15.80;72.30;;;;;;2004813;28;20204;-75
2022/03/31 01:38:11;;;;;;;1.37;1.20;;;15.80;72.40;;;;;;2004836;28;20626;-75
2022/03/31 01:39:10;;;;;;;1.40;1.30;;;15.80;72.30;;;;;;2004707;28;20273;-75
2022/03/31 01:40:09;;;;;;;3.13;1.40;;;15.80;72.30;;;;;;2004046;28;20630;-76
2022/03/31 01:41:08;;;;;;;2.78;1.50;;;15.80;72.30;;;;;;2004116;28;20169;-75
2022/03/31 01:42:08;;;;;;;2.70;1.70;;;15.80;72.30;;;;;;2004682;28;20205;-75
2022/03/31 01:43:07;;;;;;;1.80;1.25;;;15.80;72.30;;;;;;2004802;28;20415;-74
2022/03/31 01:44:06;;;;;;;4.38;1.42;;;15.80;72.30;;;;;;2004678;28;20171;-75
2022/03/31 01:45:07;;;;;;;1.63;1.27;;;15.80;72.10;;;;;;2004144;28;20181;-75
2022/03/31 01:46:08;;;;;;;1.50;1.33;;;15.80;72.20;;;;;;1996109;28;20198;-75
2022/03/31 01:47:07;;;;;;;1.42;1.33;;;15.80;72.20;;;;;;2004149;28;20261;-75
2022/03/31 01:48:06;;;;;;;2.53;1.40;;;15.80;72.40;;;;;;2004509;28;20176;-75
2022/03/31 01:49:05;;;;;;;2.63;1.30;;;15.80;72.40;;;;;;2004579;28;20191;-76
2022/03/31 01:50:04;;;;;;;1.40;1.20;;;15.80;72.40;;;;;;2004781;28;20423;-76
2022/03/31 01:51:07;;;;;;;1.60;1.20;;;15.80;72.30;;;;;;2004480;28;20201;-76
2022/03/31 01:52:06;;;;;;;1.30;1.20;;;15.80;72.30;;;;;;2004532;28;20195;-76
2022/03/31 01:53:05;;;;;;;3.20;1.57;;;15.80;72.30;;;;;;2004049;28;20196;-76
2022/03/31 01:54:05;;;;;;;1.67;1.40;;;15.80;72.30;;;;;;2004171;28;20545;-76
2022/03/31 01:55:04;;;;;;;3.03;1.20;;;15.80;72.30;;;;;;2005276;28;20412;-76
2022/03/31 01:56:06;;;;;;;1.60;1.25;;;15.80;72.40;;;;;;2004173;28;20197;-76
2022/03/31 01:57:08;;;;;;;2.13;1.70;;;15.80;72.30;;;;;;2004077;28;20181;-76
2022/03/31 01:58:07;;;;;;;1.70;1.55;;;15.80;72.40;;;;;;2004562;28;20162;-76
2022/03/31 01:59:06;;;;;;;2.08;1.40;;;15.80;72.30;;;;;;2004611;28;20177;-76
2022/03/31 02:00:07;;;;;;;1.90;1.33;;;15.90;72.40;;;;;;2004611;28;20173;-76
2022/03/31 02:01:06;;;;;;;1.90;1.40;;;15.80;72.20;;;;;;2004569;28;20400;-76
2022/03/31 02:02:05;;;;;;;1.73;1.27;;;15.80;72.20;;;;;;2004835;28;20185;-76
2022/03/31 02:03:06;;;;;;;1.50;1.15;;;15.70;72.10;;;;;;2004617;28;20539;-76
2022/03/31 02:04:04;;;;;;;2.08;1.27;;;15.70;72.20;;;;;;2004485;28;20673;-75
2022/03/31 02:05:03;;;;;;;2.33;1.30;;;15.70;72.40;;;;;;2004619;28;20200;-76
2022/03/31 02:06:03;;;;;;;2.03;1.40;;;15.70;72.40;;;;;;2004575;28;20200;-76
2022/03/31 02:07:01;;;;;;;2.22;1.40;;;15.70;72.30;;;;;;2004594;28;20239;-77
2022/03/31 02:08:00;;;;;;;1.60;1.50;;;15.70;72.20;;;;;;2004588;28;20587;-77
2022/03/31 02:08:59;;;;;;;1.90;1.07;;;15.70;72.30;;;;;;2004735;28;20175;-76
2022/03/31 02:09:57;;;;;;;2.03;1.60;;;15.70;72.40;;;;;;2004571;28;20169;-76
2022/03/31 02:10:56;;;;;;;7.43;1.80;;;15.70;72.30;;;;;;2004468;28;20169;-76
2022/03/31 02:11:55;;;;;;;1.83;1.30;;;15.70;72.40;;;;;;2004627;28;20200;-76
2022/03/31 02:12:54;;;;;;;2.58;1.60;;;15.70;72.40;;;;;;2004556;28;20589;-76
2022/03/31 02:13:54;;;;;;;1.70;1.13;;;15.70;72.40;;;;;;2004571;28;20177;-76
2022/03/31 02:14:53;;;;;;;2.60;1.10;;;15.70;72.30;;;;;;2004719;28;20180;-76
2022/03/31 02:15:52;;;;;;;2.03;1.55;;;15.70;72.40;;;;;;2006026;28;20217;-75
2022/03/31 02:16:55;;;;;;;2.10;1.90;;;15.70;72.40;;;;;;2006268;28;20271;-75
2022/03/31 02:17:54;;;;;;;2.08;1.60;;;15.80;72.70;;;;;;2005519;28;20193;-76
2022/03/31 02:18:54;;;;;;;1.38;1.10;;;15.70;73.20;;;;;;2005601;28;20177;-76
2022/03/31 02:19:53;;;;;;;1.75;1.55;;;15.70;72.40;;;;;;2006127;28;20170;-76
2022/03/31 02:20:52;;;;;;;2.70;1.10;;;15.70;72.40;;;;;;2005533;28;20169;-75
2022/03/31 02:21:51;;;;;;;1.43;1.33;;;15.70;72.60;;;;;;2005720;28;20172;-75
2022/03/31 02:22:49;;;;;;;2.28;1.20;;;15.70;72.50;;;;;;2005956;28;20199;-75
2022/03/31 02:23:48;;;;;;;1.57;1.00;;;15.70;72.60;;;;;;2006319;28;20660;-75
2022/03/31 02:24:48;;;;;;;3.07;1.60;;;15.70;72.40;;;;;;2006252;28;20171;-76
2022/03/31 02:25:48;;;;;;;1.17;1.08;;;15.70;72.40;;;;;;2006134;28;20254;-75
2022/03/31 02:26:48;;;;;;;2.10;1.20;;;15.70;72.40;;;;;;2005518;28;20371;-76
2022/03/31 02:27:52;;;;;;;1.52;1.25;;;15.70;72.40;;;;;;2005505;28;20169;-76
2022/03/31 02:28:51;;;;;;;1.42;1.10;;;15.70;72.40;;;;;;2006148;28;20569;-75
2022/03/31 02:29:50;;;;;;;2.43;1.30;;;15.70;72.50;;;;;;2006359;28;20169;-76
2022/03/31 02:30:49;;;;;;;5.20;1.70;;;15.70;72.40;;;;;;2005335;28;20268;-76
2022/03/31 02:31:48;;;;;;;4.40;1.53;;;15.70;72.40;;;;;;2005388;28;20173;-75
2022/03/31 02:32:46;;;;;;;1.30;1.10;;;15.70;72.60;;;;;;2006078;28;20284;-76
2022/03/31 02:33:47;;;;;;;1.40;1.30;;;15.70;72.50;;;;;;2006274;28;20419;-75
2022/03/31 02:34:46;;;;;;;1.23;1.13;;;15.70;72.40;;;;;;2006075;28;20192;-76
2022/03/31 02:35:44;;;;;;;1.30;1.20;;;15.70;72.40;;;;;;2006015;28;20299;-77
2022/03/31 02:36:44;;;;;;;1.87;1.40;;;15.60;72.40;;;;;;2006274;28;20165;-75
2022/03/31 02:37:43;;;;;;;2.85;1.55;;;15.70;72.50;;;;;;2006099;28;20226;-75
2022/03/31 02:38:42;;;;;;;2.33;1.33;;;15.70;73.10;;;;;;2005993;28;20169;-75
2022/03/31 02:39:40;;;;;;;0.97;0.80;;;15.70;72.80;;;;;;2005579;28;20427;-75
2022/03/31 02:40:39;;;;;;;2.30;1.10;;;15.60;72.50;;;;;;2005412;28;20180;-76
2022/03/31 02:41:38;;;;;;;1.33;1.23;;;15.60;72.40;;;;;;2005732;28;20181;-77
2022/03/31 02:42:37;;;;;;;2.28;1.50;;;15.60;72.40;;;;;;2006007;28;20184;-75
2022/03/31 02:43:35;;;;;;;2.03;1.70;;;15.60;72.40;;;;;;2005916;28;20593;-77
2022/03/31 02:44:34;;;;;;;2.03;1.20;;;15.60;72.40;;;;;;2005988;28;20173;-76
2022/03/31 02:45:34;;;;;;;1.90;1.40;;;15.60;72.40;;;;;;2006124;28;20169;-76
2022/03/31 02:46:33;;;;;;;2.67;1.23;;;15.70;72.40;;;;;;2006041;28;20628;-76
2022/03/31 02:47:34;;;;;;;2.43;1.40;;;15.60;72.40;;;;;;2005959;28;20176;-76
2022/03/31 02:48:33;;;;;;;1.60;1.50;;;15.60;72.30;;;;;;2006048;28;20427;-76
2022/03/31 02:49:32;;;;;;;2.00;1.40;;;15.60;72.40;;;;;;2006979;28;20177;-76
2022/03/31 02:50:30;;;;;;;1.43;1.10;;;15.60;72.40;;;;;;2008632;28;20423;-76
2022/03/31 02:51:29;;;;;;;1.93;1.13;;;15.60;72.40;;;;;;2008127;28;20197;-76
2022/03/31 02:55:24;;;;;;;1.73;1.33;;;15.70;72.60;;;;;;2006955;28;20175;-76
2022/03/31 02:56:21;;;;;;;1.30;1.20;;;15.60;72.40;;;;;;2006093;28;20150;-76
2022/03/31 02:57:21;;;;;;;1.30;1.20;;;15.60;72.40;;;;;;2006050;28;20161;-76
2022/03/31 02:58:19;;;;;;;1.20;1.10;;;15.60;72.40;;;;;;2006018;28;20196;-75
2022/03/31 02:59:18;;;;;;;2.07;1.30;;;15.60;72.50;;;;;;2005151;28;20302;-76
2022/03/31 03:00:18;;;;;;;1.30;1.17;;;15.60;72.50;;;;;;2005470;28;20189;-75
2022/03/31 03:01:17;;;;;;;1.30;1.20;;;15.60;72.60;;;;;;2004835;28;20633;-75
2022/03/31 03:02:15;;;;;;;2.07;1.50;;;15.60;72.30;;;;;;2005182;28;20224;-75
2022/03/31 03:03:14;;;;;;;1.93;1.37;;;15.60;72.50;;;;;;2005834;28;20264;-75
2022/03/31 03:04:13;;;;;;;1.97;1.40;;;15.60;72.40;;;;;;2005852;28;20173;-76
2022/03/31 03:05:11;;;;;;;1.73;1.30;;;15.60;72.40;;;;;;2005767;28;20963;-76
2022/03/31 03:06:11;;;;;;;2.60;1.80;;;15.60;72.40;;;;;;2005743;28;20519;-76
2022/03/31 03:07:09;;;;;;;2.05;1.25;;;15.60;72.40;;;;;;2005883;28;20313;-76
2022/03/31 03:08:08;;;;;;;1.37;1.27;;;15.50;72.30;;;;;;2005825;28;20188;-75
2022/03/31 03:09:07;;;;;;;1.77;1.50;;;15.50;72.40;;;;;;2005918;28;20220;-76
2022/03/31 03:10:06;;;;;;;1.50;1.37;;;15.50;72.50;;;;;;2005024;28;20686;-76
2022/03/31 03:11:05;;;;;;;3.90;1.33;;;15.60;72.60;;;;;;1997190;28;20461;-76
2022/03/31 03:12:05;;;;;;;1.70;1.40;;;15.60;72.70;;;;;;2004673;28;20408;-75
2022/03/31 03:13:04;;;;;;;1.90;1.40;;;15.50;72.40;;;;;;2005795;28;20192;-75
2022/03/31 03:14:03;;;;;;;2.67;1.65;;;15.60;72.50;;;;;;2005886;28;20185;-75
2022/03/31 03:15:03;;;;;;;3.93;1.60;;;15.60;72.50;;;;;;2005795;28;20618;-74
2022/03/31 03:16:08;;;;;;;1.40;1.30;;;15.50;72.40;;;;;;2005508;28;20606;-75
2022/03/31 03:17:06;;;;;;;1.45;1.30;;;15.50;72.50;;;;;;2005848;28;20513;-75
2022/03/31 03:18:05;;;;;;;1.90;1.70;;;15.50;72.50;;;;;;2005885;28;20162;-76
2022/03/31 03:19:04;;;;;;;1.50;1.40;;;15.50;72.50;;;;;;2005791;28;20248;-76
2022/03/31 03:20:03;;;;;;;2.00;1.57;;;15.50;72.40;;;;;;2004927;28;20467;-75
2022/03/31 03:21:04;;;;;;;1.50;1.30;;;15.60;72.50;;;;;;2004969;28;20215;-75
2022/03/31 03:22:03;;;;;;;1.40;1.30;;;15.60;72.50;;;;;;2005024;28;20212;-75
2022/03/31 03:23:01;;;;;;;2.43;1.40;;;15.50;72.50;;;;;;2005627;28;20169;-75
2022/03/31 03:24:04;;;;;;;1.50;1.27;;;15.60;72.50;;;;;;2005782;28;20492;-76
2022/03/31 03:25:03;;;;;;;2.28;1.30;;;15.50;72.40;;;;;;2005700;28;20166;-76
2022/03/31 03:26:02;;;;;;;1.50;1.30;;;15.50;72.50;;;;;;2005700;28;20192;-76
2022/03/31 03:27:01;;;;;;;1.70;1.30;;;15.50;72.40;;;;;;2004878;28;20173;-76
2022/03/31 03:28:00;;;;;;;1.47;1.33;;;15.50;72.40;;;;;;2005728;28;20177;-75
2022/03/31 03:28:59;;;;;;;1.30;1.17;;;15.60;72.50;;;;;;2005746;28;20418;-75
2022/03/31 03:29:57;;;;;;;1.57;1.37;;;15.50;73.10;;;;;;2005829;28;20165;-75
2022/03/31 03:30:57;;;;;;;2.00;1.60;;;15.50;72.40;;;;;;2005492;28;20173;-76
2022/03/31 03:31:56;;;;;;;1.75;1.40;;;15.50;72.40;;;;;;2005265;28;20423;-77
2022/03/31 03:32:56;;;;;;;3.65;1.50;;;15.40;72.20;;;;;;2005506;28;20236;-76
2022/03/31 03:33:54;;;;;;;1.30;1.10;;;15.50;72.40;;;;;;2005601;28;20169;-76
2022/03/31 03:34:53;;;;;;;1.67;1.33;;;15.50;72.40;;;;;;2005366;28;20204;-76
2022/03/31 03:35:51;;;;;;;1.60;1.30;;;15.50;72.30;;;;;;2005539;28;20193;-76
2022/03/31 03:36:53;;;;;;;3.03;1.63;;;15.50;72.40;;;;;;2004999;28;20668;-76
2022/03/31 03:37:51;;;;;;;3.40;1.67;;;15.50;72.50;;;;;;2005007;28;20220;-76
2022/03/31 03:38:50;;;;;;;1.93;1.60;;;15.50;72.60;;;;;;2005459;28;20584;-76
2022/03/31 03:39:50;;;;;;;1.90;1.53;;;15.50;72.50;;;;;;2005720;28;20660;-76
2022/03/31 03:40:48;;;;;;;1.63;1.50;;;15.50;72.50;;;;;;2005499;28;20173;-76
2022/03/31 03:41:47;;;;;;;2.10;1.67;;;15.50;72.60;;;;;;2005587;28;20209;-76
2022/03/31 03:42:45;;;;;;;2.37;1.60;;;15.50;72.60;;;;;;2005515;28;20169;-76
2022/03/31 03:43:44;;;;;;;3.00;1.43;;;15.50;72.50;;;;;;2005471;28;20836;-76
2022/03/31 03:44:43;;;;;;;3.53;1.40;;;15.50;72.40;;;;;;1997200;28;20186;-77
2022/03/31 03:45:42;;;;;;;3.57;1.60;;;15.50;72.60;;;;;;1989380;28;20480;-77
2022/03/31 03:46:43;;;;;;;1.45;1.33;;;15.50;72.50;;;;;;2004234;28;20169;-76
2022/03/31 03:47:43;;;;;;;1.77;1.40;;;15.50;72.50;;;;;;2005479;28;20220;-76
2022/03/31 03:48:42;;;;;;;1.65;1.50;;;15.50;72.50;;;;;;2005684;28;20179;-76
2022/03/31 03:49:43;;;;;;;2.53;1.73;;;15.50;72.50;;;;;;2005782;28;20685;-76
2022/03/31 03:50:42;;;;;;;2.47;1.50;;;15.50;72.50;;;;;;2005506;28;20177;-76
2022/03/31 03:51:40;;;;;;;1.42;1.30;;;15.50;72.50;;;;;;2004818;28;20212;-76
2022/03/31 03:52:40;;;;;;;2.60;1.47;;;15.50;72.60;;;;;;2004967;28;20680;-76
2022/03/31 03:53:39;;;;;;;1.85;1.40;;;15.50;72.50;;;;;;2005472;28;20175;-76
2022/03/31 03:54:37;;;;;;;2.07;1.60;;;15.50;72.50;;;;;;2005469;28;20173;-76
2022/03/31 03:55:37;;;;;;;3.27;1.90;;;15.50;72.60;;;;;;2005384;28;20710;-76
2022/03/31 03:56:36;;;;;;;2.15;1.45;;;15.50;72.60;;;;;;2005010;28;20268;-75
2022/03/31 03:57:34;;;;;;;2.03;1.63;;;15.50;72.60;;;;;;2004780;28;20211;-76
2022/03/31 03:58:35;;;;;;;1.77;1.40;;;15.50;72.70;;;;;;2005435;28;20165;-76
2022/03/31 03:59:34;;;;;;;2.05;1.27;;;15.50;72.60;;;;;;2004859;28;20624;-76
2022/03/31 04:00:33;;;;;;;3.60;1.60;;;15.40;72.60;;;;;;2004995;28;20169;-77
2022/03/31 04:01:31;;;;;;;3.10;2.03;;;15.50;72.60;;;;;;2005377;28;20188;-77
2022/03/31 04:02:30;;;;;;;2.27;1.50;;;15.50;73.00;;;;;;2006101;28;20204;-77
2022/03/31 04:03:28;;;;;;;2.50;2.00;;;15.50;72.60;;;;;;2005849;28;20234;-77
2022/03/31 04:04:29;;;;;;;2.70;1.80;;;15.40;72.60;;;;;;2005774;28;20184;-77
2022/03/31 04:05:28;;;;;;;2.03;1.50;;;15.50;72.70;;;;;;2005177;28;20181;-77
2022/03/31 04:06:26;;;;;;;1.73;1.50;;;15.40;72.60;;;;;;1997418;28;20185;-76
2022/03/31 04:07:25;;;;;;;2.83;1.53;;;15.40;72.60;;;;;;1996680;28;20701;-76
2022/03/31 04:08:26;;;;;;;2.00;1.33;;;15.50;72.80;;;;;;2004434;28;20177;-75
2022/03/31 04:09:25;;;;;;;1.90;1.38;;;15.40;72.50;;;;;;2005456;28;20212;-75
2022/03/31 04:10:23;;;;;;;2.60;1.60;;;15.40;72.60;;;;;;2004836;28;20189;-76
2022/03/31 04:11:22;;;;;;;2.13;1.50;;;15.40;72.60;;;;;;2004745;28;20477;-76
2022/03/31 04:12:22;;;;;;;2.47;1.50;;;15.40;72.60;;;;;;2005278;28;20195;-76
2022/03/31 04:13:21;;;;;;;2.25;1.55;;;15.40;72.70;;;;;;2005449;28;20219;-76
2022/03/31 04:14:21;;;;;;;1.80;1.37;;;15.40;72.70;;;;;;2004832;28;20710;-77
2022/03/31 04:15:20;;;;;;;2.67;1.70;;;15.40;72.70;;;;;;2004665;28;20231;-76
2022/03/31 04:16:18;;;;;;;2.90;1.87;;;15.40;72.60;;;;;;2005074;28;20225;-76
2022/03/31 04:17:17;;;;;;;1.80;1.47;;;15.40;72.60;;;;;;2005269;28;20182;-76
2022/03/31 04:18:18;;;;;;;1.30;1.20;;;15.40;72.50;;;;;;2005386;28;20543;-76
2022/03/31 04:19:19;;;;;;;1.48;1.30;;;15.40;72.60;;;;;;2005459;28;20200;-76
2022/03/31 04:20:18;;;;;;;2.53;1.60;;;15.40;72.70;;;;;;2005590;28;20514;-76
2022/03/31 04:21:16;;;;;;;2.23;1.40;;;15.40;72.60;;;;;;2005375;28;20271;-76
2022/03/31 04:22:15;;;;;;;2.60;1.90;;;15.40;72.60;;;;;;2004648;28;20720;-77
2022/03/31 04:23:13;;;;;;;1.57;1.40;;;15.50;72.70;;;;;;2004533;28;20177;-77
2022/03/31 04:24:12;;;;;;;2.00;1.40;;;15.40;72.70;;;;;;2005141;28;20224;-76
2022/03/31 04:25:11;;;;;;;2.40;1.10;;;15.40;72.60;;;;;;2005262;28;20248;-76
2022/03/31 04:26:10;;;;;;;1.58;1.38;;;15.40;72.60;;;;;;2004993;28;20193;-77
2022/03/31 04:27:08;;;;;;;2.77;1.63;;;15.40;72.60;;;;;;2004436;28;20185;-76
2022/03/31 04:28:07;;;;;;;1.57;1.30;;;15.40;72.60;;;;;;2004522;28;20641;-76
2022/03/31 04:29:08;;;;;;;2.80;2.03;;;15.40;72.60;;;;;;2005107;28;20181;-77
2022/03/31 04:30:10;;;;;;;1.52;1.38;;;15.40;72.60;;;;;;2005065;28;20196;-77
2022/03/31 04:31:09;;;;;;;1.98;1.77;;;15.30;72.60;;;;;;2004857;28;20704;-76
2022/03/31 04:32:08;;;;;;;1.90;1.70;;;15.30;72.60;;;;;;2005029;28;20279;-76
2022/03/31 04:33:06;;;;;;;2.55;1.67;;;15.40;73.30;;;;;;2004342;28;20173;-76
2022/03/31 04:34:05;;;;;;;1.70;1.30;;;15.40;72.50;;;;;;2004994;28;20178;-76
2022/03/31 04:35:05;;;;;;;2.00;1.40;;;15.40;72.70;;;;;;2005151;28;20161;-76
2022/03/31 04:36:04;;;;;;;1.75;1.30;;;15.40;72.50;;;;;;2005060;28;20247;-77
2022/03/31 04:37:03;;;;;;;2.10;1.52;;;15.50;72.80;;;;;;2004980;28;20173;-76
2022/03/31 04:38:03;;;;;;;1.60;1.40;;;15.40;72.60;;;;;;2004278;28;20169;-76
2022/03/31 04:39:03;;;;;;;2.78;1.73;;;15.40;72.50;;;;;;2004441;28;20493;-76
2022/03/31 04:40:05;;;;;;;1.92;1.30;;;15.40;72.60;;;;;;2004760;28;20264;-76
2022/03/31 04:41:04;;;;;;;1.55;1.45;;;15.40;72.50;;;;;;2004233;28;20185;-76
2022/03/31 04:42:05;;;;;;;2.47;1.50;;;15.40;72.40;;;;;;2004327;28;20185;-77
2022/03/31 04:43:04;;;;;;;1.85;1.45;;;15.30;72.40;;;;;;1996588;28;20425;-77
2022/03/31 04:44:02;;;;;;;2.10;1.30;;;15.30;72.50;;;;;;2004324;28;20203;-77
2022/03/31 04:45:02;;;;;;;2.27;1.50;;;15.30;72.50;;;;;;2005214;28;20179;-76
2022/03/31 04:46:01;;;;;;;1.75;1.50;;;15.30;72.60;;;;;;2004926;28;20666;-76
2022/03/31 04:46:59;;;;;;;2.37;1.70;;;15.30;72.80;;;;;;2004968;28;20208;-76
2022/03/31 04:47:58;;;;;;;1.37;1.20;;;15.30;72.60;;;;;;2005058;28;20180;-76
2022/03/31 04:48:57;;;;;;;2.57;1.43;;;15.30;72.50;;;;;;2005175;28;20173;-76
2022/03/31 04:49:58;;;;;;;2.58;1.80;;;15.30;72.50;;;;;;2004927;28;20180;-76
2022/03/31 04:50:56;;;;;;;2.17;1.50;;;15.30;72.50;;;;;;2004248;28;20181;-76
2022/03/31 04:51:55;;;;;;;2.33;1.60;;;15.30;72.50;;;;;;2004330;28;20721;-76
2022/03/31 04:52:53;;;;;;;1.87;1.30;;;15.40;72.60;;;;;;2004917;28;20240;-77
2022/03/31 04:53:52;;;;;;;2.17;1.50;;;15.30;72.40;;;;;;2004782;28;20181;-75
2022/03/31 04:54:52;;;;;;;1.93;1.37;;;15.40;72.50;;;;;;2005135;28;20173;-75
2022/03/31 04:55:51;;;;;;;1.55;1.45;;;15.30;72.30;;;;;;2004832;28;20197;-77
2022/03/31 04:56:49;;;;;;;1.60;1.30;;;15.40;72.50;;;;;;2004905;28;20592;-77
2022/03/31 04:57:48;;;;;;;1.83;1.50;;;15.30;72.50;;;;;;2005188;28;20256;-77
2022/03/31 04:58:47;;;;;;;1.50;1.40;;;15.30;72.40;;;;;;2004923;28;20197;-77
2022/03/31 04:59:45;;;;;;;1.80;1.43;;;15.30;73.20;;;;;;2005074;28;20181;-77
2022/03/31 05:00:44;;;;;;;2.90;1.73;;;15.30;72.50;;;;;;2004833;28;20658;-77
2022/03/31 05:01:43;;;;;;;2.30;1.40;;;15.30;72.50;;;;;;2004842;28;20208;-77
2022/03/31 05:02:42;;;;;;;2.10;1.40;;;15.30;72.60;;;;;;2005031;28;20426;-77
2022/03/31 05:03:41;;;;;;;1.98;1.42;;;15.30;72.60;;;;;;2004939;28;20538;-77
2022/03/31 05:04:40;;;;;;;1.40;1.10;;;15.30;72.50;;;;;;2004867;28;20177;-77
2022/03/31 05:05:38;;;;;;;1.73;1.50;;;15.30;72.50;;;;;;2004806;28;20177;-77
2022/03/31 05:06:37;;;;;;;2.77;1.50;;;15.30;72.60;;;;;;2004844;28;20173;-76
2022/03/31 05:07:36;;;;;;;3.57;1.97;;;15.30;72.50;;;;;;2004855;28;20197;-77
2022/03/31 05:08:36;;;;;;;1.57;1.30;;;15.30;72.50;;;;;;2004794;28;20181;-76
2022/03/31 05:09:35;;;;;;;1.67;1.52;;;15.30;72.60;;;;;;2004959;28;20231;-76
2022/03/31 05:10:34;;;;;;;2.80;1.40;;;15.30;72.50;;;;;;2005050;28;20639;-76
2022/03/31 05:11:34;;;;;;;2.20;1.53;;;15.30;72.60;;;;;;2004250;28;20278;-76
2022/03/31 05:12:32;;;;;;;2.10;1.83;;;15.30;72.60;;;;;;2004334;28;20430;-76